Aérodrome :
LOGIN :

S'inscrire | Disclaimer

   EN    FR    IT 

 










Légende :    VFR   VFR Marginal   IFR   IFR Intensif   IFR Très Intensif
Visi : 
Plafond : 
>= 8 km
>= 3000ft
5 à 8 km
1000 à 3000 ft
1500m à 5 km
500 à 1000 ft
800 à 1500m
200 à 500 ft
< 800m
< 200 ft
Symboles :   Orages  Brouillard  Fortes neiges  Fortes précipitations  Vent > 20 kt
SIGMETs :   Divers  Orages  Givrage  Turbulence  Onde Orograph.  Cendres Volcan.






- Altitude de l'aérodrome : 256 ft
- Code IATA : CFR


LFRK - Caen

DERNIER METAR :
  • 280530Z AUTO 20004KT 9999 OVC006/// 05/05 Q1022

METARs EXPIRÉS :
  • 280500Z AUTO 22004KT 9999 BKN007/// BKN064/// 05/04 Q1022
  • 280430Z AUTO 00000KT 9999 FEW020/// SCT029/// OVC064/// 04/03 Q1022
  • 280400Z AUTO 17003KT 9999 BKN008/// OVC028/// 04/04 Q1021
  • 280330Z AUTO 13005KT 9999 BKN009/// 03/03 Q1021
  • 280300Z AUTO 13003KT 100V160 9999 NCD 04/03 Q1022
  • 280230Z AUTO 19004KT 100V230 9999 NCD 05/03 Q1022
  • 280200Z AUTO 24008KT 9999 NCD 06/05 Q1022
  • 280130Z AUTO 25007KT 9999 NCD 05/03 Q1022
  • 280100Z AUTO 23006KT 9999 NCD 04/03 Q1022

TAF TAF LFRK
Valide du 28 à 06h jusqu'au 28 à 15h UTC


280500Z 2806/2815 VRB05KT 9999 SCT008 BKN020
TEMPO 2806/2810 3000 BR BKN005
BECMG 2810/2812 22010KT
Météo : +33 2 31 26 68 11



MET'MAP, la Météo Aéronautique d'un coup d'oeil ! - Copyright ORBIFLY Décembre 2007 - Disclaimer

ORBIFLY MET'MAP TEAM :

Programmation & Développement : Alexandra Zaïnal
Sur une idée originale de : Baudouin d'Aumeries
Soutien technique & logistique : Manuel Goepfert
Assistance : Marc-Olivier Méhu




SOURCES & CREDITS :

   NOAA